Miguel Esteban, Spain
Current Conditions -  °F | °C
As of 12:00 PM on Saturday 20 Dec 2014 (Local Time) from LEAO Reporting Station
Moderate Fog Moderate Fog  
Wind Chill: 37°   Ceiling: Unl
Heat Index: 37°   Visibility: 0.18mi
Dew Point: 37°   Wind: 0mph
Humidity: 100%   Direction: NA
Pressure: 30.53"   Gusts: NA
Location:  39.52°N, 3.08°W
Report Text: LEAO 201100Z 00000KT 0300 R27/0375N FG VV/// 03/03 Q1034
Loading
Personal Weather Stations






























Interactive Weather Map New forecast layout! Learn more

10-Day Weather Forecast

Advertisements
Track Severe Weather on mobile